CDT,Max TemperatureF,Mean TemperatureF,Min TemperatureF,Max Dew PointF,MeanDew PointF,Min DewpointF,Max Humidity, Mean Humidity, Min Humidity, Max Sea Level PressureIn, Mean Sea Level PressureIn, Min Sea Level PressureIn, Max VisibilityMiles, Mean VisibilityMiles, Min VisibilityMiles, Max Wind SpeedMPH, Mean Wind SpeedMPH, Max Gust SpeedMPH,PrecipitationIn, CloudCover, Events, WindDirDegrees
2013-6-1,103,91,79,74,71,66,82,58,30,29.84,29.76,29.69,10,10,10,21,17,,0.00,0,,125
2013-6-2,99,89,78,74,70,64,79,61,35,29.98,29.89,29.82,10,10,10,21,12,,0.00,2,,50
2013-6-3,101,88,75,72,65,58,82,51,27,29.95,29.87,29.77,10,10,10,17,11,,0.00,0,,112
2013-6-4,103,88,73,72,65,55,93,54,20,29.88,29.82,29.74,10,10,10,17,10,21,0.00,0,,119
2013-6-5,103,89,74,71,65,55,87,54,21,29.84,29.78,29.71,10,10,10,22,12,27,0.00,0,,124
2013-6-6,99,87,75,72,68,64,90,56,32,29.85,29.78,29.71,10,10,10,18,9,24,0.00,0,,118
2013-6-7,93,82,70,72,68,64,81,70,46,30.00,29.90,29.83,10,8,0,37,10,49,0.00,4,Fog-Rain-Thunderstorm,77
2013-6-8,95,82,69,75,67,60,82,58,41,29.92,29.83,29.73,10,10,10,32,14,41,0.00,2,Thunderstorm,121
2013-6-9,98,88,77,75,71,66,91,67,35,29.89,29.83,29.76,10,10,10,20,8,23,0.00,2,,130
2013-6-10,98,87,76,75,72,65,91,73,34,29.97,29.92,29.85,10,9,2,25,9,31,0.44,3,,113
2013-6-11,93,85,76,75,71,65,94,71,42,30.00,29.95,29.91,10,10,10,20,10,23,0.00,1,,125
2013-6-12,92,84,75,75,72,66,100,76,52,30.04,29.97,29.87,10,9,2,32,8,38,0.00,4,Rain-Thunderstorm,138
2013-6-13,95,86,76,77,74,70,94,75,49,30.03,29.95,29.85,10,9,2,36,13,44,0.07,3,Thunderstorm,127
2013-6-14,87,81,75,78,75,70,100,87,70,29.94,29.89,29.81,10,6,0,30,11,37,1.50,5,Rain-Thunderstorm,128
2013-6-15,98,87,76,75,72,67,90,68,38,29.97,29.89,29.81,10,10,10,21,10,25,0.00,2,,141
2013-6-16,100,90,79,74,71,65,85,61,33,29.99,29.91,29.85,10,10,9,22,13,25,0.00,2,,145
2013-6-17,102,91,80,74,70,62,79,57,28,29.93,29.88,29.80,10,10,8,21,13,26,0.00,1,,147
2013-6-18,101,90,78,73,68,62,85,55,29,29.94,29.88,29.81,10,10,10,22,10,25,0.00,0,,139
2013-6-19,101,90,78,72,67,62,82,52,28,29.96,29.88,29.81,10,10,10,24,14,31,0.00,0,,150
2013-6-20,100,89,78,73,69,62,82,55,33,30.03,29.94,29.87,10,10,7,24,17,30,0.00,2,,149
2013-6-21,100,90,79,73,68,59,82,56,27,30.05,29.98,29.89,10,9,7,25,16,30,0.00,2,,145
2013-6-22,100,90,79,73,65,56,82,50,24,29.99,29.93,29.83,10,9,8,27,17,33,0.00,0,,142
2013-6-23,102,90,77,71,67,62,82,52,29,29.93,29.88,29.80,10,10,8,25,17,31,0.00,0,,141
2013-6-24,102,91,80,72,67,60,77,51,26,29.95,29.90,29.81,10,10,9,29,19,36,0.00,1,,146
2013-6-25,103,91,79,72,68,63,76,52,28,29.95,29.88,29.78,10,9,7,28,18,31,0.00,0,,146
2013-6-26,106,93,80,73,69,60,79,53,22,29.92,29.87,29.79,10,10,10,23,15,30,0.00,1,,146
2013-6-27,105,91,77,71,67,54,79,51,19,29.97,29.91,29.84,10,10,10,24,12,28,0.00,0,,137
2013-6-28,104,91,77,73,66,57,79,49,23,29.96,29.89,29.80,10,10,10,22,7,24,0.00,0,,128
2013-6-29,110,95,80,71,64,58,72,41,19,29.87,29.80,29.70,10,10,10,16,8,21,0.00,0,,148
2013-6-30,94,86,77,75,68,62,88,59,36,30.03,29.87,29.75,10,9,2,22,8,26,T,1,Rain-Thunderstorm,110